sensor_id;sensor_type;location;lat;lon;timestamp;P1;durP1;ratioP1;P2;durP2;ratioP2
11911;SDS011;6016;41.928;25.556;2024-02-04T00:00:46;42.10;;;18.85;;
11911;SDS011;6016;41.928;25.556;2024-02-04T00:03:13;35.92;;;17.20;;
11911;SDS011;6016;41.928;25.556;2024-02-04T00:05:40;36.78;;;16.17;;
11911;SDS011;6016;41.928;25.556;2024-02-04T00:08:09;37.13;;;15.35;;
11911;SDS011;6016;41.928;25.556;2024-02-04T00:10:38;36.85;;;15.98;;
11911;SDS011;6016;41.928;25.556;2024-02-04T00:13:05;38.30;;;15.60;;
11911;SDS011;6016;41.928;25.556;2024-02-04T00:15:32;54.13;;;22.30;;
11911;SDS011;6016;41.928;25.556;2024-02-04T00:17:59;72.57;;;26.17;;
11911;SDS011;6016;41.928;25.556;2024-02-04T00:20:26;72.25;;;25.73;;
11911;SDS011;6016;41.928;25.556;2024-02-04T00:22:54;59.33;;;22.02;;
11911;SDS011;6016;41.928;25.556;2024-02-04T00:25:22;53.92;;;20.88;;
11911;SDS011;6016;41.928;25.556;2024-02-04T00:27:49;45.92;;;17.85;;
11911;SDS011;6016;41.928;25.556;2024-02-04T00:30:16;42.35;;;17.55;;
11911;SDS011;6016;41.928;25.556;2024-02-04T00:32:44;24.02;;;10.68;;
11911;SDS011;6016;41.928;25.556;2024-02-04T00:35:11;24.52;;;10.52;;
11911;SDS011;6016;41.928;25.556;2024-02-04T00:37:38;21.85;;;8.93;;
11911;SDS011;6016;41.928;25.556;2024-02-04T00:40:05;39.38;;;16.58;;
11911;SDS011;6016;41.928;25.556;2024-02-04T00:42:34;41.20;;;17.83;;
11911;SDS011;6016;41.928;25.556;2024-02-04T00:45:01;38.85;;;17.75;;
11911;SDS011;6016;41.928;25.556;2024-02-04T00:47:28;44.33;;;21.00;;
11911;SDS011;6016;41.928;25.556;2024-02-04T00:49:55;43.83;;;21.27;;
11911;SDS011;6016;41.928;25.556;2024-02-04T00:52:22;47.92;;;19.88;;
11911;SDS011;6016;41.928;25.556;2024-02-04T00:54:49;44.65;;;19.20;;
11911;SDS011;6016;41.928;25.556;2024-02-04T00:57:16;45.75;;;20.10;;
11911;SDS011;6016;41.928;25.556;2024-02-04T00:59:45;38.50;;;17.95;;
11911;SDS011;6016;41.928;25.556;2024-02-04T01:02:12;35.05;;;14.27;;
11911;SDS011;6016;41.928;25.556;2024-02-04T01:04:39;43.67;;;18.70;;
11911;SDS011;6016;41.928;25.556;2024-02-04T01:07:06;43.75;;;19.10;;
11911;SDS011;6016;41.928;25.556;2024-02-04T01:09:33;45.67;;;19.60;;
11911;SDS011;6016;41.928;25.556;2024-02-04T01:12:00;46.30;;;20.13;;
11911;SDS011;6016;41.928;25.556;2024-02-04T01:14:27;43.60;;;18.95;;
11911;SDS011;6016;41.928;25.556;2024-02-04T01:16:55;34.15;;;16.10;;
11911;SDS011;6016;41.928;25.556;2024-02-04T01:19:22;29.17;;;14.48;;
11911;SDS011;6016;41.928;25.556;2024-02-04T01:21:49;34.15;;;14.85;;
11911;SDS011;6016;41.928;25.556;2024-02-04T01:24:16;35.75;;;15.10;;
11911;SDS011;6016;41.928;25.556;2024-02-04T01:26:43;32.97;;;14.52;;
11911;SDS011;6016;41.928;25.556;2024-02-04T01:29:10;33.22;;;14.60;;
11911;SDS011;6016;41.928;25.556;2024-02-04T01:31:37;30.52;;;14.02;;
11911;SDS011;6016;41.928;25.556;2024-02-04T01:34:05;31.50;;;14.13;;
11911;SDS011;6016;41.928;25.556;2024-02-04T01:36:32;36.15;;;15.35;;
11911;SDS011;6016;41.928;25.556;2024-02-04T01:38:59;29.95;;;13.38;;
11911;SDS011;6016;41.928;25.556;2024-02-04T01:41:26;31.73;;;14.48;;
11911;SDS011;6016;41.928;25.556;2024-02-04T01:43:53;29.15;;;14.35;;
11911;SDS011;6016;41.928;25.556;2024-02-04T01:46:20;30.40;;;14.90;;
11911;SDS011;6016;41.928;25.556;2024-02-04T01:48:47;31.80;;;14.95;;
11911;SDS011;6016;41.928;25.556;2024-02-04T01:51:16;34.28;;;16.40;;
11911;SDS011;6016;41.928;25.556;2024-02-04T01:53:46;39.20;;;16.63;;
11911;SDS011;6016;41.928;25.556;2024-02-04T01:56:15;35.95;;;16.27;;
11911;SDS011;6016;41.928;25.556;2024-02-04T01:58:43;34.00;;;15.90;;
11911;SDS011;6016;41.928;25.556;2024-02-04T02:01:14;36.80;;;15.23;;
11911;SDS011;6016;41.928;25.556;2024-02-04T02:03:41;41.05;;;16.52;;
11911;SDS011;6016;41.928;25.556;2024-02-04T02:06:08;36.10;;;16.20;;
11911;SDS011;6016;41.928;25.556;2024-02-04T02:08:38;34.95;;;14.85;;
11911;SDS011;6016;41.928;25.556;2024-02-04T02:11:07;40.90;;;17.58;;
11911;SDS011;6016;41.928;25.556;2024-02-04T02:13:37;46.55;;;19.10;;
11911;SDS011;6016;41.928;25.556;2024-02-04T02:16:07;43.80;;;19.50;;
11911;SDS011;6016;41.928;25.556;2024-02-04T02:18:44;42.88;;;17.98;;
11911;SDS011;6016;41.928;25.556;2024-02-04T02:21:22;42.75;;;19.10;;
11911;SDS011;6016;41.928;25.556;2024-02-04T02:24:11;43.03;;;18.27;;
11911;SDS011;6016;41.928;25.556;2024-02-04T02:26:46;39.53;;;17.35;;
11911;SDS011;6016;41.928;25.556;2024-02-04T02:29:13;38.65;;;16.60;;
11911;SDS011;6016;41.928;25.556;2024-02-04T02:31:40;37.25;;;15.73;;
11911;SDS011;6016;41.928;25.556;2024-02-04T02:34:08;31.38;;;15.30;;
11911;SDS011;6016;41.928;25.556;2024-02-04T02:36:36;32.97;;;14.82;;
11911;SDS011;6016;41.928;25.556;2024-02-04T02:39:12;30.17;;;14.20;;
11911;SDS011;6016;41.928;25.556;2024-02-04T02:44:12;29.05;;;12.38;;
11911;SDS011;6016;41.928;25.556;2024-02-04T02:46:41;29.08;;;14.80;;
11911;SDS011;6016;41.928;25.556;2024-02-04T02:49:09;30.17;;;13.98;;
11911;SDS011;6016;41.928;25.556;2024-02-04T02:51:36;24.00;;;13.02;;
11911;SDS011;6016;41.928;25.556;2024-02-04T02:54:03;24.88;;;11.73;;
11911;SDS011;6016;41.928;25.556;2024-02-04T02:56:30;24.55;;;12.40;;
11911;SDS011;6016;41.928;25.556;2024-02-04T02:58:57;26.83;;;12.32;;
11911;SDS011;6016;41.928;25.556;2024-02-04T03:01:25;26.75;;;12.15;;
11911;SDS011;6016;41.928;25.556;2024-02-04T03:03:52;28.90;;;12.50;;
11911;SDS011;6016;41.928;25.556;2024-02-04T03:06:19;35.15;;;12.63;;
11911;SDS011;6016;41.928;25.556;2024-02-04T03:08:46;25.92;;;10.98;;
11911;SDS011;6016;41.928;25.556;2024-02-04T03:11:13;18.48;;;8.57;;
11911;SDS011;6016;41.928;25.556;2024-02-04T03:13:40;16.25;;;8.00;;
11911;SDS011;6016;41.928;25.556;2024-02-04T03:16:09;15.57;;;8.10;;
11911;SDS011;6016;41.928;25.556;2024-02-04T03:18:39;14.65;;;7.10;;
11911;SDS011;6016;41.928;25.556;2024-02-04T03:21:11;14.32;;;6.72;;
11911;SDS011;6016;41.928;25.556;2024-02-04T03:23:39;25.65;;;12.43;;
11911;SDS011;6016;41.928;25.556;2024-02-04T03:26:07;47.10;;;20.02;;
11911;SDS011;6016;41.928;25.556;2024-02-04T03:28:34;51.10;;;24.13;;
11911;SDS011;6016;41.928;25.556;2024-02-04T03:31:01;53.25;;;24.23;;
11911;SDS011;6016;41.928;25.556;2024-02-04T03:33:28;42.60;;;19.70;;
11911;SDS011;6016;41.928;25.556;2024-02-04T03:35:56;52.92;;;23.50;;
11911;SDS011;6016;41.928;25.556;2024-02-04T03:38:23;52.03;;;23.83;;
11911;SDS011;6016;41.928;25.556;2024-02-04T03:40:51;48.78;;;23.15;;
11911;SDS011;6016;41.928;25.556;2024-02-04T03:43:18;44.25;;;21.92;;
11911;SDS011;6016;41.928;25.556;2024-02-04T03:45:45;36.55;;;16.88;;
11911;SDS011;6016;41.928;25.556;2024-02-04T03:48:12;29.67;;;12.60;;
11911;SDS011;6016;41.928;25.556;2024-02-04T03:50:39;30.55;;;13.50;;
11911;SDS011;6016;41.928;25.556;2024-02-04T03:53:07;25.08;;;11.27;;
11911;SDS011;6016;41.928;25.556;2024-02-04T03:55:34;22.67;;;8.40;;
11911;SDS011;6016;41.928;25.556;2024-02-04T03:58:01;13.75;;;7.47;;
11911;SDS011;6016;41.928;25.556;2024-02-04T04:00:28;15.35;;;7.30;;
11911;SDS011;6016;41.928;25.556;2024-02-04T04:02:55;12.18;;;5.97;;
11911;SDS011;6016;41.928;25.556;2024-02-04T04:05:22;11.00;;;5.80;;
11911;SDS011;6016;41.928;25.556;2024-02-04T04:07:51;12.75;;;6.03;;
11911;SDS011;6016;41.928;25.556;2024-02-04T04:10:19;10.93;;;5.78;;
11911;SDS011;6016;41.928;25.556;2024-02-04T04:12:46;13.98;;;6.50;;
11911;SDS011;6016;41.928;25.556;2024-02-04T04:15:14;12.13;;;6.40;;
11911;SDS011;6016;41.928;25.556;2024-02-04T04:17:41;13.63;;;6.30;;
11911;SDS011;6016;41.928;25.556;2024-02-04T04:20:08;14.05;;;6.85;;
11911;SDS011;6016;41.928;25.556;2024-02-04T04:22:35;27.25;;;13.57;;
11911;SDS011;6016;41.928;25.556;2024-02-04T04:25:06;45.28;;;18.85;;
11911;SDS011;6016;41.928;25.556;2024-02-04T04:27:35;50.38;;;21.98;;
11911;SDS011;6016;41.928;25.556;2024-02-04T04:30:02;45.35;;;21.88;;
11911;SDS011;6016;41.928;25.556;2024-02-04T04:32:29;51.75;;;23.27;;
11911;SDS011;6016;41.928;25.556;2024-02-04T04:34:56;56.75;;;25.42;;
11911;SDS011;6016;41.928;25.556;2024-02-04T04:37:23;51.88;;;23.40;;
11911;SDS011;6016;41.928;25.556;2024-02-04T04:39:50;57.17;;;25.30;;
11911;SDS011;6016;41.928;25.556;2024-02-04T04:42:17;53.55;;;23.38;;
11911;SDS011;6016;41.928;25.556;2024-02-04T04:44:45;47.60;;;21.67;;
11911;SDS011;6016;41.928;25.556;2024-02-04T04:47:14;48.97;;;20.67;;
11911;SDS011;6016;41.928;25.556;2024-02-04T04:49:41;40.47;;;18.88;;
11911;SDS011;6016;41.928;25.556;2024-02-04T04:52:08;44.65;;;19.75;;
11911;SDS011;6016;41.928;25.556;2024-02-04T04:54:35;40.10;;;18.45;;
11911;SDS011;6016;41.928;25.556;2024-02-04T04:57:02;39.83;;;18.33;;
11911;SDS011;6016;41.928;25.556;2024-02-04T04:59:29;44.45;;;19.40;;
11911;SDS011;6016;41.928;25.556;2024-02-04T05:01:57;39.50;;;17.52;;
11911;SDS011;6016;41.928;25.556;2024-02-04T05:04:24;39.45;;;17.33;;
11911;SDS011;6016;41.928;25.556;2024-02-04T05:06:51;38.45;;;17.75;;
11911;SDS011;6016;41.928;25.556;2024-02-04T05:09:18;39.15;;;16.13;;
11911;SDS011;6016;41.928;25.556;2024-02-04T05:11:45;34.35;;;16.25;;
11911;SDS011;6016;41.928;25.556;2024-02-04T05:14:12;35.42;;;16.08;;
11911;SDS011;6016;41.928;25.556;2024-02-04T05:16:39;39.55;;;16.90;;
11911;SDS011;6016;41.928;25.556;2024-02-04T05:19:10;33.90;;;15.65;;
11911;SDS011;6016;41.928;25.556;2024-02-04T05:21:37;25.92;;;12.05;;
11911;SDS011;6016;41.928;25.556;2024-02-04T05:24:05;21.10;;;9.98;;
11911;SDS011;6016;41.928;25.556;2024-02-04T05:26:32;23.20;;;9.27;;
11911;SDS011;6016;41.928;25.556;2024-02-04T05:28:59;20.55;;;7.93;;
11911;SDS011;6016;41.928;25.556;2024-02-04T05:31:26;36.47;;;18.00;;
11911;SDS011;6016;41.928;25.556;2024-02-04T05:33:53;23.35;;;10.68;;
11911;SDS011;6016;41.928;25.556;2024-02-04T05:36:22;20.85;;;9.50;;
11911;SDS011;6016;41.928;25.556;2024-02-04T05:38:49;33.08;;;16.13;;
11911;SDS011;6016;41.928;25.556;2024-02-04T05:41:15;40.42;;;17.27;;
11911;SDS011;6016;41.928;25.556;2024-02-04T05:43:42;41.63;;;19.50;;
11911;SDS011;6016;41.928;25.556;2024-02-04T05:46:10;40.15;;;18.77;;
11911;SDS011;6016;41.928;25.556;2024-02-04T05:48:39;37.25;;;17.83;;
11911;SDS011;6016;41.928;25.556;2024-02-04T05:51:09;26.73;;;14.38;;
11911;SDS011;6016;41.928;25.556;2024-02-04T05:53:38;27.13;;;14.00;;
11911;SDS011;6016;41.928;25.556;2024-02-04T05:56:05;26.80;;;13.73;;
11911;SDS011;6016;41.928;25.556;2024-02-04T05:58:32;28.88;;;14.95;;
11911;SDS011;6016;41.928;25.556;2024-02-04T06:00:59;32.63;;;14.20;;
11911;SDS011;6016;41.928;25.556;2024-02-04T06:03:26;29.92;;;15.05;;
11911;SDS011;6016;41.928;25.556;2024-02-04T06:05:53;29.33;;;15.02;;
11911;SDS011;6016;41.928;25.556;2024-02-04T06:08:19;40.85;;;18.17;;
11911;SDS011;6016;41.928;25.556;2024-02-04T06:10:48;41.90;;;18.42;;
11911;SDS011;6016;41.928;25.556;2024-02-04T06:13:15;38.72;;;18.13;;
11911;SDS011;6016;41.928;25.556;2024-02-04T06:15:42;30.65;;;15.82;;
11911;SDS011;6016;41.928;25.556;2024-02-04T06:18:09;39.28;;;17.77;;
11911;SDS011;6016;41.928;25.556;2024-02-04T06:20:36;34.53;;;17.55;;
11911;SDS011;6016;41.928;25.556;2024-02-04T06:23:03;53.42;;;24.60;;
11911;SDS011;6016;41.928;25.556;2024-02-04T06:25:30;55.65;;;25.63;;
11911;SDS011;6016;41.928;25.556;2024-02-04T06:27:58;58.05;;;26.65;;
11911;SDS011;6016;41.928;25.556;2024-02-04T06:30:25;67.65;;;28.15;;
11911;SDS011;6016;41.928;25.556;2024-02-04T06:32:52;63.80;;;28.73;;
11911;SDS011;6016;41.928;25.556;2024-02-04T06:35:20;65.10;;;29.20;;
11911;SDS011;6016;41.928;25.556;2024-02-04T06:37:47;68.03;;;30.50;;
11911;SDS011;6016;41.928;25.556;2024-02-04T06:40:14;169.80;;;64.50;;
11911;SDS011;6016;41.928;25.556;2024-02-04T06:42:41;132.70;;;53.72;;
11911;SDS011;6016;41.928;25.556;2024-02-04T06:45:09;100.65;;;42.50;;
11911;SDS011;6016;41.928;25.556;2024-02-04T06:47:36;87.28;;;41.05;;
11911;SDS011;6016;41.928;25.556;2024-02-04T06:50:04;81.68;;;37.05;;
11911;SDS011;6016;41.928;25.556;2024-02-04T06:52:31;82.80;;;36.92;;
11911;SDS011;6016;41.928;25.556;2024-02-04T06:54:58;80.85;;;36.03;;
11911;SDS011;6016;41.928;25.556;2024-02-04T06:57:25;74.70;;;35.53;;
11911;SDS011;6016;41.928;25.556;2024-02-04T06:59:52;76.60;;;34.72;;
11911;SDS011;6016;41.928;25.556;2024-02-04T07:02:21;87.35;;;38.78;;
11911;SDS011;6016;41.928;25.556;2024-02-04T07:04:48;89.05;;;38.47;;
11911;SDS011;6016;41.928;25.556;2024-02-04T07:07:15;85.43;;;37.65;;
11911;SDS011;6016;41.928;25.556;2024-02-04T07:09:41;91.30;;;38.38;;
11911;SDS011;6016;41.928;25.556;2024-02-04T07:12:08;89.05;;;38.20;;
11911;SDS011;6016;41.928;25.556;2024-02-04T07:14:35;78.78;;;37.22;;
11911;SDS011;6016;41.928;25.556;2024-02-04T07:17:02;70.63;;;32.17;;
11911;SDS011;6016;41.928;25.556;2024-02-04T07:19:30;76.95;;;35.25;;
11911;SDS011;6016;41.928;25.556;2024-02-04T07:21:57;83.40;;;39.40;;
11911;SDS011;6016;41.928;25.556;2024-02-04T07:24:24;85.15;;;39.35;;
11911;SDS011;6016;41.928;25.556;2024-02-04T07:26:51;81.82;;;36.58;;
11911;SDS011;6016;41.928;25.556;2024-02-04T07:29:18;76.70;;;37.63;;
11911;SDS011;6016;41.928;25.556;2024-02-04T07:31:45;94.50;;;42.30;;
11911;SDS011;6016;41.928;25.556;2024-02-04T07:34:12;89.63;;;40.05;;
11911;SDS011;6016;41.928;25.556;2024-02-04T07:36:41;83.03;;;37.95;;
11911;SDS011;6016;41.928;25.556;2024-02-04T07:39:09;80.07;;;36.95;;
11911;SDS011;6016;41.928;25.556;2024-02-04T07:41:35;77.80;;;35.00;;
11911;SDS011;6016;41.928;25.556;2024-02-04T07:44:03;76.43;;;35.40;;
11911;SDS011;6016;41.928;25.556;2024-02-04T07:46:30;68.95;;;33.42;;
11911;SDS011;6016;41.928;25.556;2024-02-04T07:48:57;74.38;;;35.15;;
11911;SDS011;6016;41.928;25.556;2024-02-04T07:51:24;81.40;;;36.47;;
11911;SDS011;6016;41.928;25.556;2024-02-04T07:53:52;79.82;;;38.42;;
11911;SDS011;6016;41.928;25.556;2024-02-04T07:56:19;120.15;;;52.83;;
11911;SDS011;6016;41.928;25.556;2024-02-04T07:58:46;113.75;;;51.78;;
11911;SDS011;6016;41.928;25.556;2024-02-04T08:01:13;109.50;;;52.22;;
11911;SDS011;6016;41.928;25.556;2024-02-04T08:03:40;120.32;;;54.38;;
11911;SDS011;6016;41.928;25.556;2024-02-04T08:06:07;121.47;;;56.70;;
11911;SDS011;6016;41.928;25.556;2024-02-04T08:08:35;118.68;;;56.15;;
11911;SDS011;6016;41.928;25.556;2024-02-04T08:11:03;128.32;;;58.47;;
11911;SDS011;6016;41.928;25.556;2024-02-04T08:13:30;133.23;;;58.05;;
11911;SDS011;6016;41.928;25.556;2024-02-04T08:15:57;128.15;;;57.00;;
11911;SDS011;6016;41.928;25.556;2024-02-04T08:18:24;127.80;;;59.28;;
11911;SDS011;6016;41.928;25.556;2024-02-04T08:20:51;154.45;;;67.63;;
11911;SDS011;6016;41.928;25.556;2024-02-04T08:23:18;160.75;;;70.00;;
11911;SDS011;6016;41.928;25.556;2024-02-04T08:25:45;152.82;;;65.00;;
11911;SDS011;6016;41.928;25.556;2024-02-04T08:28:14;142.05;;;65.13;;
11911;SDS011;6016;41.928;25.556;2024-02-04T08:30:40;140.27;;;62.47;;
11911;SDS011;6016;41.928;25.556;2024-02-04T08:33:07;135.57;;;62.92;;
11911;SDS011;6016;41.928;25.556;2024-02-04T08:35:35;110.93;;;48.00;;
11911;SDS011;6016;41.928;25.556;2024-02-04T08:38:02;80.50;;;35.72;;
11911;SDS011;6016;41.928;25.556;2024-02-04T08:40:29;82.28;;;36.70;;
11911;SDS011;6016;41.928;25.556;2024-02-04T08:42:56;76.10;;;33.63;;
11911;SDS011;6016;41.928;25.556;2024-02-04T08:45:24;55.72;;;25.00;;
11911;SDS011;6016;41.928;25.556;2024-02-04T08:47:52;58.95;;;26.60;;
11911;SDS011;6016;41.928;25.556;2024-02-04T08:50:19;61.63;;;25.83;;
11911;SDS011;6016;41.928;25.556;2024-02-04T08:52:46;45.75;;;22.35;;
11911;SDS011;6016;41.928;25.556;2024-02-04T08:55:13;37.20;;;17.50;;
11911;SDS011;6016;41.928;25.556;2024-02-04T08:57:40;35.05;;;15.85;;
11911;SDS011;6016;41.928;25.556;2024-02-04T09:00:08;25.55;;;11.77;;
11911;SDS011;6016;41.928;25.556;2024-02-04T09:02:38;31.15;;;12.90;;
11911;SDS011;6016;41.928;25.556;2024-02-04T09:05:05;34.10;;;13.48;;
11911;SDS011;6016;41.928;25.556;2024-02-04T09:07:33;57.83;;;17.73;;
11911;SDS011;6016;41.928;25.556;2024-02-04T09:10:00;47.20;;;15.50;;
11911;SDS011;6016;41.928;25.556;2024-02-04T09:12:27;24.30;;;10.27;;
11911;SDS011;6016;41.928;25.556;2024-02-04T09:14:54;24.23;;;11.05;;
11911;SDS011;6016;41.928;25.556;2024-02-04T09:17:21;24.60;;;10.32;;
11911;SDS011;6016;41.928;25.556;2024-02-04T09:19:49;18.02;;;8.07;;
11911;SDS011;6016;41.928;25.556;2024-02-04T09:22:16;12.82;;;5.88;;
11911;SDS011;6016;41.928;25.556;2024-02-04T09:24:43;13.90;;;8.02;;
11911;SDS011;6016;41.928;25.556;2024-02-04T09:27:10;9.27;;;5.20;;
11911;SDS011;6016;41.928;25.556;2024-02-04T09:29:37;20.42;;;9.70;;
11911;SDS011;6016;41.928;25.556;2024-02-04T09:32:04;24.48;;;11.73;;
11911;SDS011;6016;41.928;25.556;2024-02-04T09:34:33;24.10;;;12.07;;
11911;SDS011;6016;41.928;25.556;2024-02-04T09:37:01;27.20;;;13.48;;
11911;SDS011;6016;41.928;25.556;2024-02-04T09:39:28;15.40;;;8.60;;
11911;SDS011;6016;41.928;25.556;2024-02-04T09:41:55;14.65;;;7.95;;
11911;SDS011;6016;41.928;25.556;2024-02-04T09:44:22;13.68;;;6.13;;
11911;SDS011;6016;41.928;25.556;2024-02-04T09:46:50;11.88;;;6.45;;
11911;SDS011;6016;41.928;25.556;2024-02-04T09:49:17;10.13;;;6.20;;
11911;SDS011;6016;41.928;25.556;2024-02-04T09:51:44;15.48;;;8.15;;
11911;SDS011;6016;41.928;25.556;2024-02-04T09:54:13;12.30;;;6.53;;
11911;SDS011;6016;41.928;25.556;2024-02-04T09:56:44;11.68;;;6.35;;
11911;SDS011;6016;41.928;25.556;2024-02-04T09:59:16;13.93;;;7.35;;
11911;SDS011;6016;41.928;25.556;2024-02-04T10:01:43;11.85;;;6.32;;
11911;SDS011;6016;41.928;25.556;2024-02-04T10:04:11;13.90;;;7.47;;
11911;SDS011;6016;41.928;25.556;2024-02-04T10:06:38;19.52;;;8.52;;
11911;SDS011;6016;41.928;25.556;2024-02-04T10:09:05;13.82;;;7.70;;
11911;SDS011;6016;41.928;25.556;2024-02-04T10:11:34;15.18;;;7.57;;
11911;SDS011;6016;41.928;25.556;2024-02-04T10:14:01;18.60;;;10.05;;
11911;SDS011;6016;41.928;25.556;2024-02-04T10:16:27;28.30;;;12.88;;
11911;SDS011;6016;41.928;25.556;2024-02-04T10:18:55;40.95;;;17.13;;
11911;SDS011;6016;41.928;25.556;2024-02-04T10:21:22;33.17;;;14.95;;
11911;SDS011;6016;41.928;25.556;2024-02-04T10:23:50;37.55;;;17.02;;
11911;SDS011;6016;41.928;25.556;2024-02-04T10:26:17;26.98;;;12.65;;
11911;SDS011;6016;41.928;25.556;2024-02-04T10:28:47;29.85;;;14.30;;
11911;SDS011;6016;41.928;25.556;2024-02-04T10:31:14;27.02;;;13.43;;
11911;SDS011;6016;41.928;25.556;2024-02-04T10:33:42;33.92;;;14.55;;
11911;SDS011;6016;41.928;25.556;2024-02-04T10:36:09;28.45;;;13.63;;
11911;SDS011;6016;41.928;25.556;2024-02-04T10:38:37;34.55;;;16.60;;
11911;SDS011;6016;41.928;25.556;2024-02-04T10:41:04;26.10;;;12.52;;
11911;SDS011;6016;41.928;25.556;2024-02-04T10:43:33;14.48;;;7.20;;
11911;SDS011;6016;41.928;25.556;2024-02-04T10:46:05;19.23;;;8.98;;
11911;SDS011;6016;41.928;25.556;2024-02-04T10:48:36;17.33;;;9.88;;
11911;SDS011;6016;41.928;25.556;2024-02-04T10:51:09;20.85;;;11.63;;
11911;SDS011;6016;41.928;25.556;2024-02-04T10:53:40;22.17;;;9.43;;
11911;SDS011;6016;41.928;25.556;2024-02-04T10:56:10;22.00;;;12.60;;
11911;SDS011;6016;41.928;25.556;2024-02-04T10:58:41;17.33;;;8.90;;
11911;SDS011;6016;41.928;25.556;2024-02-04T11:01:11;18.33;;;10.75;;
11911;SDS011;6016;41.928;25.556;2024-02-04T11:03:39;22.05;;;10.68;;
11911;SDS011;6016;41.928;25.556;2024-02-04T11:06:07;21.65;;;11.02;;
11911;SDS011;6016;41.928;25.556;2024-02-04T11:08:34;19.25;;;10.93;;
11911;SDS011;6016;41.928;25.556;2024-02-04T11:11:01;18.02;;;9.63;;
11911;SDS011;6016;41.928;25.556;2024-02-04T11:13:28;21.90;;;12.20;;
11911;SDS011;6016;41.928;25.556;2024-02-04T11:15:56;28.10;;;12.10;;
11911;SDS011;6016;41.928;25.556;2024-02-04T11:24:14;21.58;;;10.00;;
11911;SDS011;6016;41.928;25.556;2024-02-04T11:26:52;25.85;;;11.82;;
11911;SDS011;6016;41.928;25.556;2024-02-04T11:29:19;47.33;;;18.42;;
11911;SDS011;6016;41.928;25.556;2024-02-04T11:31:48;37.35;;;15.65;;
11911;SDS011;6016;41.928;25.556;2024-02-04T11:34:16;34.63;;;13.77;;
11911;SDS011;6016;41.928;25.556;2024-02-04T11:36:43;89.32;;;34.00;;
11911;SDS011;6016;41.928;25.556;2024-02-04T11:39:13;53.47;;;20.67;;
11911;SDS011;6016;41.928;25.556;2024-02-04T11:41:44;23.05;;;10.18;;
11911;SDS011;6016;41.928;25.556;2024-02-04T11:44:12;39.78;;;15.05;;
11911;SDS011;6016;41.928;25.556;2024-02-04T11:46:45;52.00;;;19.98;;
11911;SDS011;6016;41.928;25.556;2024-02-04T11:49:14;38.63;;;14.50;;
11911;SDS011;6016;41.928;25.556;2024-02-04T11:51:45;52.50;;;24.50;;
11911;SDS011;6016;41.928;25.556;2024-02-04T11:54:14;36.75;;;16.63;;
11911;SDS011;6016;41.928;25.556;2024-02-04T11:56:44;34.55;;;15.70;;
11911;SDS011;6016;41.928;25.556;2024-02-04T11:59:18;57.45;;;24.05;;
11911;SDS011;6016;41.928;25.556;2024-02-04T12:01:46;23.30;;;11.80;;
11911;SDS011;6016;41.928;25.556;2024-02-04T12:04:14;19.85;;;8.90;;
11911;SDS011;6016;41.928;25.556;2024-02-04T12:06:42;15.35;;;8.40;;
11911;SDS011;6016;41.928;25.556;2024-02-04T12:09:11;17.15;;;7.88;;
11911;SDS011;6016;41.928;25.556;2024-02-04T12:11:39;14.55;;;7.38;;
11911;SDS011;6016;41.928;25.556;2024-02-04T12:14:07;10.50;;;5.07;;
11911;SDS011;6016;41.928;25.556;2024-02-04T12:16:34;7.85;;;3.80;;
11911;SDS011;6016;41.928;25.556;2024-02-04T12:19:01;8.82;;;4.22;;
11911;SDS011;6016;41.928;25.556;2024-02-04T12:21:29;7.00;;;3.08;;
11911;SDS011;6016;41.928;25.556;2024-02-04T12:23:57;6.82;;;3.90;;
11911;SDS011;6016;41.928;25.556;2024-02-04T12:26:26;5.35;;;3.33;;
11911;SDS011;6016;41.928;25.556;2024-02-04T12:28:53;6.38;;;3.65;;
11911;SDS011;6016;41.928;25.556;2024-02-04T12:31:21;7.78;;;3.97;;
11911;SDS011;6016;41.928;25.556;2024-02-04T12:33:55;12.20;;;6.60;;
11911;SDS011;6016;41.928;25.556;2024-02-04T12:36:23;7.93;;;3.58;;
11911;SDS011;6016;41.928;25.556;2024-02-04T12:38:54;8.52;;;3.35;;
11911;SDS011;6016;41.928;25.556;2024-02-04T12:41:22;3.88;;;2.33;;
11911;SDS011;6016;41.928;25.556;2024-02-04T12:43:51;4.22;;;2.90;;
11911;SDS011;6016;41.928;25.556;2024-02-04T12:46:19;10.88;;;3.33;;
11911;SDS011;6016;41.928;25.556;2024-02-04T12:48:50;12.85;;;5.07;;
11911;SDS011;6016;41.928;25.556;2024-02-04T12:51:24;36.97;;;14.93;;
11911;SDS011;6016;41.928;25.556;2024-02-04T12:54:01;12.63;;;6.78;;
11911;SDS011;6016;41.928;25.556;2024-02-04T12:56:39;17.10;;;5.90;;
11911;SDS011;6016;41.928;25.556;2024-02-04T12:59:09;7.50;;;4.45;;
11911;SDS011;6016;41.928;25.556;2024-02-04T13:01:36;7.20;;;3.00;;
11911;SDS011;6016;41.928;25.556;2024-02-04T13:04:03;11.52;;;4.93;;
11911;SDS011;6016;41.928;25.556;2024-02-04T13:06:30;13.43;;;4.70;;
11911;SDS011;6016;41.928;25.556;2024-02-04T13:08:57;10.70;;;4.63;;
11911;SDS011;6016;41.928;25.556;2024-02-04T13:11:25;15.00;;;6.97;;
11911;SDS011;6016;41.928;25.556;2024-02-04T13:13:52;20.40;;;8.00;;
11911;SDS011;6016;41.928;25.556;2024-02-04T13:16:20;11.27;;;4.88;;
11911;SDS011;6016;41.928;25.556;2024-02-04T13:18:52;7.93;;;4.03;;
11911;SDS011;6016;41.928;25.556;2024-02-04T13:21:19;25.60;;;11.55;;
11911;SDS011;6016;41.928;25.556;2024-02-04T13:23:47;11.23;;;4.20;;
11911;SDS011;6016;41.928;25.556;2024-02-04T13:26:14;12.98;;;4.72;;
11911;SDS011;6016;41.928;25.556;2024-02-04T13:28:42;9.07;;;4.30;;
11911;SDS011;6016;41.928;25.556;2024-02-04T13:31:09;11.23;;;5.20;;
11911;SDS011;6016;41.928;25.556;2024-02-04T13:33:39;13.77;;;5.53;;
11911;SDS011;6016;41.928;25.556;2024-02-04T13:36:07;12.68;;;5.82;;
11911;SDS011;6016;41.928;25.556;2024-02-04T13:38:34;13.35;;;5.85;;
11911;SDS011;6016;41.928;25.556;2024-02-04T13:41:01;12.30;;;5.78;;
11911;SDS011;6016;41.928;25.556;2024-02-04T13:43:29;108.10;;;38.13;;
11911;SDS011;6016;41.928;25.556;2024-02-04T13:45:56;80.15;;;29.52;;
11911;SDS011;6016;41.928;25.556;2024-02-04T13:48:22;40.88;;;15.07;;
11911;SDS011;6016;41.928;25.556;2024-02-04T13:50:52;27.17;;;9.15;;
11911;SDS011;6016;41.928;25.556;2024-02-04T13:53:20;46.70;;;19.05;;
11911;SDS011;6016;41.928;25.556;2024-02-04T13:55:47;28.95;;;13.45;;
11911;SDS011;6016;41.928;25.556;2024-02-04T13:58:15;33.72;;;12.95;;
11911;SDS011;6016;41.928;25.556;2024-02-04T14:00:43;39.85;;;15.13;;
11911;SDS011;6016;41.928;25.556;2024-02-04T14:03:10;19.60;;;8.50;;
11911;SDS011;6016;41.928;25.556;2024-02-04T14:05:38;16.08;;;8.23;;
11911;SDS011;6016;41.928;25.556;2024-02-04T14:08:07;12.50;;;6.47;;
11911;SDS011;6016;41.928;25.556;2024-02-04T14:10:34;14.63;;;7.60;;
11911;SDS011;6016;41.928;25.556;2024-02-04T14:13:01;23.75;;;12.15;;
11911;SDS011;6016;41.928;25.556;2024-02-04T14:15:30;25.52;;;12.00;;
11911;SDS011;6016;41.928;25.556;2024-02-04T14:17:57;21.20;;;10.25;;
11911;SDS011;6016;41.928;25.556;2024-02-04T14:20:24;17.35;;;8.30;;
11911;SDS011;6016;41.928;25.556;2024-02-04T14:22:51;24.35;;;11.13;;
11911;SDS011;6016;41.928;25.556;2024-02-04T14:25:20;19.33;;;9.40;;
11911;SDS011;6016;41.928;25.556;2024-02-04T14:27:47;28.38;;;13.57;;
11911;SDS011;6016;41.928;25.556;2024-02-04T14:30:14;19.60;;;9.98;;
11911;SDS011;6016;41.928;25.556;2024-02-04T14:32:42;17.77;;;8.43;;
11911;SDS011;6016;41.928;25.556;2024-02-04T14:35:09;14.57;;;9.13;;
11911;SDS011;6016;41.928;25.556;2024-02-04T14:37:36;16.98;;;10.88;;